Time;durP1;ratioP1;P1;durP2;ratioP2;P2;SDS_P1;SDS_P2;PMS_P1;PMS_P2;Temp;Humidity;BMP_temperature;BMP_pressure;BME280_temperature;BME280_humidity;BME280_pressure;Samples;Min_cycle;Max_cycle;Signal;HPM_P1;HPM_P2
2021/10/16 00:01:27;;;;;;;0.10;0.10;;;;;;;;;;5097298;28;20455;-82
2021/10/16 00:03:53;;;;;;;1.63;1.20;;;;;;;;;;5097480;28;20129;-83
2021/10/16 00:06:19;;;;;;;0.43;0.43;;;;;;;;;;5095992;28;20392;-83
2021/10/16 00:08:45;;;;;;;0.05;0.05;;;;;;;;;;5094315;28;20035;-83
2021/10/16 00:11:12;;;;;;;0.15;0.15;;;;;;;;;;5092309;28;20031;-83
2021/10/16 00:13:39;;;;;;;0.13;0.13;;;;;;;;;;5093078;28;20412;-83
2021/10/16 00:16:05;;;;;;;0.10;0.10;;;;;;;;;;5091158;28;20598;-83
2021/10/16 00:18:32;;;;;;;0.20;0.20;;;;;;;;;;5097764;28;20054;-82
2021/10/16 00:20:59;;;;;;;0.40;0.40;;;;;;;;;;5094361;28;20502;-82
2021/10/16 00:23:25;;;;;;;0.90;0.90;;;;;;;;;;5099112;28;20048;-83
2021/10/16 00:25:51;;;;;;;0.15;0.15;;;;;;;;;;5097410;28;20086;-82
2021/10/16 00:28:17;;;;;;;0.43;0.43;;;;;;;;;;5095475;28;20575;-82
2021/10/16 00:30:43;;;;;;;0.47;0.47;;;;;;;;;;5089684;28;20056;-83
2021/10/16 00:33:09;;;;;;;0.17;0.17;;;;;;;;;;5093209;28;20075;-83
2021/10/16 00:35:35;;;;;;;0.60;0.60;;;;;;;;;;5097043;28;20111;-83
2021/10/16 00:38:02;;;;;;;0.53;0.20;;;;;;;;;;5091995;28;20040;-82
2021/10/16 00:40:28;;;;;;;1.10;0.50;;;;;;;;;;5094110;28;20043;-83
2021/10/16 00:42:54;;;;;;;2.13;0.87;;;;;;;;;;5089073;28;20043;-83
2021/10/16 00:45:23;;;;;;;0.35;0.35;;;;;;;;;;5090814;28;20028;-82
2021/10/16 00:47:49;;;;;;;0.55;0.55;;;;;;;;;;5090935;28;20068;-83
2021/10/16 00:50:16;;;;;;;0.20;0.20;;;;;;;;;;5094482;28;20109;-83
2021/10/16 00:52:42;;;;;;;1.00;0.80;;;;;;;;;;5094231;28;20044;-83
2021/10/16 00:55:09;;;;;;;0.73;0.73;;;;;;;;;;5090363;28;20055;-83
2021/10/16 00:57:35;;;;;;;0.00;0.00;;;;;;;;;;5090403;28;20028;-83
2021/10/16 01:00:02;;;;;;;0.00;0.00;;;;;;;;;;5099407;28;20118;-83
2021/10/16 01:02:28;;;;;;;0.77;0.40;;;;;;;;;;5096848;28;20027;-83
2021/10/16 01:04:55;;;;;;;0.68;0.30;;;;;;;;;;5096500;28;20056;-84
2021/10/16 01:07:20;;;;;;;;;;;;;;;;;;5094283;28;20024;-85
2021/10/16 01:09:47;;;;;;;0.43;0.43;;;;;;;;;;5093029;28;19923;-84
2021/10/16 01:12:13;;;;;;;0.60;0.60;;;;;;;;;;5091167;28;20059;-84
2021/10/16 01:14:41;;;;;;;0.22;0.22;;;;;;;;;;5098651;28;20109;-83
2021/10/16 01:17:07;;;;;;;0.20;0.20;;;;;;;;;;5095854;28;20019;-84
2021/10/16 01:19:34;;;;;;;2.72;0.93;;;;;;;;;;5098889;28;20027;-84
2021/10/16 01:22:01;;;;;;;0.57;0.57;;;;;;;;;;5091235;28;20544;-83
2021/10/16 01:24:27;;;;;;;1.67;0.73;;;;;;;;;;5095356;28;20031;-83
2021/10/16 01:26:53;;;;;;;0.10;0.10;;;;;;;;;;5086043;28;20020;-82
2021/10/16 01:29:26;;;;;;;0.60;0.60;;;;;;;;;;5089972;28;20023;-83
2021/10/16 01:31:53;;;;;;;0.10;0.10;;;;;;;;;;5091540;28;20031;-83
2021/10/16 01:34:19;;;;;;;0.20;0.20;;;;;;;;;;5090523;28;20048;-84
2021/10/16 01:36:47;;;;;;;0.17;0.17;;;;;;;;;;5092667;28;20031;-84
2021/10/16 01:39:13;;;;;;;0.05;0.05;;;;;;;;;;5096400;28;20032;-82
2021/10/16 01:41:39;;;;;;;0.25;0.25;;;;;;;;;;5093641;28;20028;-85
2021/10/16 01:44:06;;;;;;;0.45;0.43;;;;;;;;;;5093218;28;20073;-83
2021/10/16 01:46:32;;;;;;;0.32;0.32;;;;;;;;;;5097051;28;20023;-83
2021/10/16 01:48:58;;;;;;;0.30;0.30;;;;;;;;;;5096937;28;20484;-83
2021/10/16 01:51:24;;;;;;;0.60;0.25;;;;;;;;;;5096509;28;20043;-83
2021/10/16 01:53:50;;;;;;;0.20;0.20;;;;;;;;;;5098530;28;20501;-82
2021/10/16 01:56:17;;;;;;;0.63;0.63;;;;;;;;;;5092251;28;20032;-83
2021/10/16 01:58:43;;;;;;;3.20;2.28;;;;;;;;;;5094410;28;20032;-83
2021/10/16 02:01:09;;;;;;;0.45;0.40;;;;;;;;;;5092303;28;20522;-84
2021/10/16 02:03:35;;;;;;;0.47;0.47;;;;;;;;;;5095421;28;23901;-83
2021/10/16 02:06:01;;;;;;;0.15;0.15;;;;;;;;;;5095363;28;20567;-84
2021/10/16 02:08:27;;;;;;;0.25;0.25;;;;;;;;;;5090750;28;20036;-84
2021/10/16 02:10:53;;;;;;;0.20;0.20;;;;;;;;;;5100988;28;20031;-83
2021/10/16 02:13:19;;;;;;;0.20;0.20;;;;;;;;;;5098424;28;20142;-83
2021/10/16 02:15:45;;;;;;;0.30;0.30;;;;;;;;;;5096181;28;20032;-84
2021/10/16 02:18:11;;;;;;;0.30;0.30;;;;;;;;;;5092807;28;20043;-84
2021/10/16 02:20:37;;;;;;;0.10;0.10;;;;;;;;;;5093333;28;20027;-83
2021/10/16 02:23:03;;;;;;;0.03;0.03;;;;;;;;;;5099228;28;20028;-83
2021/10/16 02:25:29;;;;;;;0.20;0.20;;;;;;;;;;5097042;28;20035;-83
2021/10/16 02:27:55;;;;;;;0.52;0.52;;;;;;;;;;5092234;28;20032;-83
2021/10/16 02:30:21;;;;;;;0.47;0.47;;;;;;;;;;5094370;28;20035;-83
2021/10/16 02:32:47;;;;;;;0.17;0.17;;;;;;;;;;5095134;28;20048;-82
2021/10/16 02:35:13;;;;;;;0.52;0.52;;;;;;;;;;5092446;28;20889;-83
2021/10/16 02:37:39;;;;;;;0.40;0.40;;;;;;;;;;5091269;28;20097;-83
2021/10/16 02:40:06;;;;;;;0.23;0.23;;;;;;;;;;5089622;28;20101;-82
2021/10/16 02:42:32;;;;;;;0.00;0.00;;;;;;;;;;5087846;28;20032;-82
2021/10/16 02:44:58;;;;;;;0.10;0.10;;;;;;;;;;5099545;28;20561;-82
2021/10/16 02:47:27;;;;;;;0.10;0.10;;;;;;;;;;5092513;28;20031;-82
2021/10/16 02:49:53;;;;;;;0.20;0.20;;;;;;;;;;5097507;28;20048;-82
2021/10/16 02:52:19;;;;;;;0.10;0.10;;;;;;;;;;5094191;28;20027;-82
2021/10/16 02:54:45;;;;;;;0.25;0.25;;;;;;;;;;5100387;28;20035;-82
2021/10/16 02:57:11;;;;;;;0.10;0.10;;;;;;;;;;5096454;28;20048;-82
2021/10/16 02:59:37;;;;;;;0.20;0.20;;;;;;;;;;5093158;28;20056;-82
2021/10/16 03:02:03;;;;;;;0.63;0.38;;;;;;;;;;5088562;28;20028;-82
2021/10/16 03:04:29;;;;;;;0.13;0.13;;;;;;;;;;5095789;28;20396;-82
2021/10/16 03:06:55;;;;;;;0.10;0.10;;;;;;;;;;5094802;28;20028;-82
2021/10/16 03:09:21;;;;;;;0.10;0.10;;;;;;;;;;5101129;28;20035;-82
2021/10/16 03:11:47;;;;;;;0.68;0.68;;;;;;;;;;5099416;28;20048;-81
2021/10/16 03:14:13;;;;;;;2.72;0.60;;;;;;;;;;5093458;28;20097;-82
2021/10/16 03:16:39;;;;;;;0.10;0.10;;;;;;;;;;5101651;28;20031;-83
2021/10/16 03:19:05;;;;;;;0.80;0.57;;;;;;;;;;5091848;28;20042;-82
2021/10/16 03:21:31;;;;;;;0.30;0.30;;;;;;;;;;5098899;28;20107;-82
2021/10/16 03:23:57;;;;;;;0.10;0.10;;;;;;;;;;5097590;28;20655;-82
2021/10/16 03:26:23;;;;;;;0.98;0.90;;;;;;;;;;5102749;28;20130;-82
2021/10/16 03:28:49;;;;;;;0.52;0.52;;;;;;;;;;5101948;28;20027;-83
2021/10/16 03:31:15;;;;;;;0.30;0.30;;;;;;;;;;5094868;28;20032;-82
2021/10/16 03:33:41;;;;;;;1.02;1.02;;;;;;;;;;5091430;28;20092;-82
2021/10/16 03:36:07;;;;;;;0.10;0.10;;;;;;;;;;5091677;28;20238;-82
2021/10/16 03:38:33;;;;;;;0.60;0.60;;;;;;;;;;5093454;28;20595;-82
2021/10/16 03:40:59;;;;;;;0.57;0.55;;;;;;;;;;5095852;28;20024;-82
2021/10/16 03:43:25;;;;;;;0.80;0.70;;;;;;;;;;5100898;28;20032;-82
2021/10/16 03:45:51;;;;;;;0.20;0.20;;;;;;;;;;5102231;28;20049;-82
2021/10/16 03:48:18;;;;;;;0.00;0.00;;;;;;;;;;5104525;28;20177;-82
2021/10/16 03:50:44;;;;;;;0.30;0.30;;;;;;;;;;5100445;28;20040;-82
2021/10/16 03:53:10;;;;;;;0.40;0.40;;;;;;;;;;5094716;28;20044;-82
2021/10/16 03:55:36;;;;;;;0.10;0.10;;;;;;;;;;5099585;28;20031;-81
2021/10/16 03:58:02;;;;;;;0.08;0.08;;;;;;;;;;5100739;28;20036;-81
2021/10/16 04:00:29;;;;;;;0.00;0.00;;;;;;;;;;5099956;28;20118;-82
2021/10/16 04:02:58;;;;;;;0.90;0.82;;;;;;;;;;5093603;28;20035;-82
2021/10/16 04:05:24;;;;;;;0.75;0.75;;;;;;;;;;5095287;28;20084;-83
2021/10/16 04:07:50;;;;;;;1.70;1.30;;;;;;;;;;5100609;28;20065;-82
2021/10/16 04:10:16;;;;;;;0.47;0.22;;;;;;;;;;5095614;28;20504;-81
2021/10/16 04:12:42;;;;;;;0.30;0.30;;;;;;;;;;5101026;28;20043;-82
2021/10/16 04:15:09;;;;;;;0.20;0.20;;;;;;;;;;5098889;28;20598;-83
2021/10/16 04:17:35;;;;;;;0.20;0.20;;;;;;;;;;5092360;28;20040;-82
2021/10/16 04:20:01;;;;;;;0.93;0.85;;;;;;;;;;5090875;28;20111;-83
2021/10/16 04:22:27;;;;;;;2.38;0.52;;;;;;;;;;5094684;28;20085;-82
2021/10/16 04:24:53;;;;;;;0.37;0.37;;;;;;;;;;5094268;28;20028;-82
2021/10/16 04:27:22;;;;;;;0.73;0.73;;;;;;;;;;5094232;28;20275;-81
2021/10/16 04:29:48;;;;;;;0.43;0.40;;;;;;;;;;5101308;28;20039;-82
2021/10/16 04:32:14;;;;;;;0.10;0.10;;;;;;;;;;5095944;28;20036;-81
2021/10/16 04:34:40;;;;;;;0.57;0.57;;;;;;;;;;5096283;28;20047;-82
2021/10/16 04:37:06;;;;;;;0.10;0.10;;;;;;;;;;5098322;28;20590;-82
2021/10/16 04:39:32;;;;;;;0.20;0.20;;;;;;;;;;5091662;28;20031;-82
2021/10/16 04:41:58;;;;;;;0.30;0.30;;;;;;;;;;5092571;28;20024;-82
2021/10/16 04:44:24;;;;;;;0.10;0.10;;;;;;;;;;5088522;28;20052;-81
2021/10/16 04:46:50;;;;;;;0.10;0.10;;;;;;;;;;5096823;28;20035;-81
2021/10/16 04:49:16;;;;;;;1.10;0.38;;;;;;;;;;5088146;28;20035;-82
2021/10/16 04:51:43;;;;;;;0.17;0.17;;;;;;;;;;5094123;28;20044;-81
2021/10/16 04:54:09;;;;;;;0.93;0.63;;;;;;;;;;5098309;28;20108;-83
2021/10/16 04:56:35;;;;;;;1.13;0.43;;;;;;;;;;5096465;28;20030;-82
2021/10/16 04:59:01;;;;;;;0.22;0.22;;;;;;;;;;5096113;28;20032;-82
2021/10/16 05:01:27;;;;;;;0.22;0.22;;;;;;;;;;5092055;28;20028;-82
2021/10/16 05:03:53;;;;;;;0.32;0.32;;;;;;;;;;5098218;28;20027;-82
2021/10/16 05:06:20;;;;;;;0.20;0.20;;;;;;;;;;5095525;28;20023;-83
2021/10/16 05:08:46;;;;;;;0.63;0.63;;;;;;;;;;5096287;28;20045;-82
2021/10/16 05:11:12;;;;;;;0.63;0.63;;;;;;;;;;5092728;28;20035;-81
2021/10/16 05:13:38;;;;;;;0.20;0.20;;;;;;;;;;5092266;28;20036;-81
2021/10/16 05:16:04;;;;;;;0.10;0.10;;;;;;;;;;5096530;28;20125;-82
2021/10/16 05:18:32;;;;;;;0.20;0.20;;;;;;;;;;5089051;28;20036;-82
2021/10/16 05:20:58;;;;;;;0.68;0.45;;;;;;;;;;5091488;28;20016;-82
2021/10/16 05:23:24;;;;;;;0.28;0.28;;;;;;;;;;5099003;28;20042;-83
2021/10/16 05:25:51;;;;;;;0.30;0.30;;;;;;;;;;5095467;28;20107;-83
2021/10/16 05:28:17;;;;;;;0.40;0.35;;;;;;;;;;5089643;28;20040;-81
2021/10/16 05:30:44;;;;;;;0.00;0.00;;;;;;;;;;5090734;28;20115;-82
2021/10/16 05:33:10;;;;;;;0.10;0.10;;;;;;;;;;5092505;28;20093;-82
2021/10/16 05:35:38;;;;;;;0.52;0.52;;;;;;;;;;5089004;28;20289;-83
2021/10/16 05:38:04;;;;;;;0.40;0.40;;;;;;;;;;5089012;28;20028;-82
2021/10/16 05:40:30;;;;;;;0.63;0.63;;;;;;;;;;5094445;28;20105;-83
2021/10/16 05:42:56;;;;;;;0.52;0.52;;;;;;;;;;5095920;28;20055;-84
2021/10/16 05:45:22;;;;;;;0.20;0.20;;;;;;;;;;5093143;28;20031;-83
2021/10/16 05:47:48;;;;;;;0.30;0.30;;;;;;;;;;5103425;28;20024;-84
2021/10/16 05:50:14;;;;;;;0.77;0.57;;;;;;;;;;5096086;28;20047;-83
2021/10/16 05:52:40;;;;;;;0.52;0.52;;;;;;;;;;5091799;28;20123;-83
2021/10/16 05:55:08;;;;;;;0.10;0.10;;;;;;;;;;5099001;28;20054;-83
2021/10/16 05:57:34;;;;;;;0.43;0.40;;;;;;;;;;5095096;28;20508;-84
2021/10/16 06:00:00;;;;;;;0.20;0.20;;;;;;;;;;5093791;28;20028;-82
2021/10/16 06:02:26;;;;;;;0.10;0.10;;;;;;;;;;5086770;28;20039;-81
2021/10/16 06:04:52;;;;;;;0.75;0.70;;;;;;;;;;5093703;28;20031;-82
2021/10/16 06:07:18;;;;;;;0.10;0.10;;;;;;;;;;5091403;28;20028;-83
2021/10/16 06:09:44;;;;;;;0.10;0.10;;;;;;;;;;5095249;28;20046;-83
2021/10/16 06:12:10;;;;;;;0.05;0.05;;;;;;;;;;5102547;28;20031;-83
2021/10/16 06:14:36;;;;;;;0.10;0.10;;;;;;;;;;5096429;28;20032;-83
2021/10/16 06:17:03;;;;;;;0.15;0.15;;;;;;;;;;5097658;28;20032;-83
2021/10/16 06:19:30;;;;;;;0.88;0.88;;;;;;;;;;5099490;28;20039;-82
2021/10/16 06:21:56;;;;;;;0.43;0.35;;;;;;;;;;5100342;28;20790;-81
2021/10/16 06:24:22;;;;;;;0.10;0.10;;;;;;;;;;5096262;28;20472;-83
2021/10/16 06:26:48;;;;;;;0.10;0.10;;;;;;;;;;5094467;28;20036;-82
2021/10/16 06:29:14;;;;;;;0.52;0.52;;;;;;;;;;5091908;28;20028;-82
2021/10/16 06:31:40;;;;;;;0.00;0.00;;;;;;;;;;5095611;28;20036;-82
2021/10/16 06:34:07;;;;;;;0.30;0.30;;;;;;;;;;5093646;28;20066;-82
2021/10/16 06:36:33;;;;;;;0.30;0.30;;;;;;;;;;5098669;28;20469;-82
2021/10/16 06:38:59;;;;;;;0.10;0.10;;;;;;;;;;5096065;28;20027;-82
2021/10/16 06:41:25;;;;;;;0.70;0.70;;;;;;;;;;5092508;28;20031;-80
2021/10/16 06:43:51;;;;;;;0.20;0.20;;;;;;;;;;5095290;28;20027;-81
2021/10/16 06:46:17;;;;;;;0.52;0.50;;;;;;;;;;5097271;28;20561;-80
2021/10/16 06:48:43;;;;;;;0.25;0.20;;;;;;;;;;5097456;28;20032;-82
2021/10/16 06:51:09;;;;;;;0.33;0.33;;;;;;;;;;5097909;28;20048;-81
2021/10/16 06:53:37;;;;;;;0.38;0.38;;;;;;;;;;5097735;28;20043;-81
2021/10/16 06:56:03;;;;;;;0.25;0.25;;;;;;;;;;5095236;28;20052;-80
2021/10/16 06:58:29;;;;;;;0.10;0.10;;;;;;;;;;5098123;28;20042;-80
2021/10/16 07:00:55;;;;;;;0.40;0.40;;;;;;;;;;5092754;28;20281;-80
2021/10/16 07:03:21;;;;;;;0.38;0.38;;;;;;;;;;5095704;28;20035;-80
2021/10/16 07:05:47;;;;;;;0.15;0.15;;;;;;;;;;5093886;28;20496;-81
2021/10/16 07:08:13;;;;;;;0.40;0.27;;;;;;;;;;5094207;28;20023;-82
2021/10/16 07:10:39;;;;;;;0.10;0.10;;;;;;;;;;5089986;28;20330;-82
2021/10/16 07:13:08;;;;;;;0.70;0.55;;;;;;;;;;5091680;28;20035;-80
2021/10/16 07:15:34;;;;;;;0.28;0.28;;;;;;;;;;5093810;28;20595;-81
2021/10/16 07:18:00;;;;;;;1.60;0.63;;;;;;;;;;5095978;28;20635;-81
2021/10/16 07:20:26;;;;;;;0.20;0.20;;;;;;;;;;5087919;28;20611;-81
2021/10/16 07:22:54;;;;;;;0.70;0.47;;;;;;;;;;5093815;28;20023;-81
2021/10/16 07:25:20;;;;;;;0.73;0.73;;;;;;;;;;5092023;28;20305;-81
2021/10/16 07:27:46;;;;;;;0.30;0.30;;;;;;;;;;5093861;28;20020;-82
2021/10/16 07:30:12;;;;;;;0.20;0.20;;;;;;;;;;5095323;28;20356;-80
2021/10/16 07:32:38;;;;;;;0.10;0.10;;;;;;;;;;5092440;28;20028;-81
2021/10/16 07:35:04;;;;;;;0.50;0.50;;;;;;;;;;5090311;28;20038;-81
2021/10/16 07:37:30;;;;;;;0.22;0.22;;;;;;;;;;5089194;28;20441;-80
2021/10/16 07:39:57;;;;;;;0.40;0.40;;;;;;;;;;5097520;28;20931;-80
2021/10/16 07:42:23;;;;;;;0.33;0.33;;;;;;;;;;5093730;28;20085;-80
2021/10/16 07:44:49;;;;;;;1.93;1.27;;;;;;;;;;5092333;28;20501;-80
2021/10/16 07:47:15;;;;;;;0.53;0.53;;;;;;;;;;5090930;28;20050;-80
2021/10/16 07:49:41;;;;;;;0.35;0.35;;;;;;;;;;5091998;28;20044;-81
2021/10/16 07:52:07;;;;;;;0.40;0.40;;;;;;;;;;5094428;28;20024;-80
2021/10/16 07:54:33;;;;;;;0.43;0.43;;;;;;;;;;5090539;28;20039;-81
2021/10/16 07:57:01;;;;;;;0.53;0.53;;;;;;;;;;5094416;28;20027;-82
2021/10/16 07:59:27;;;;;;;0.38;0.38;;;;;;;;;;5091583;28;20127;-80
2021/10/16 08:01:54;;;;;;;0.13;0.13;;;;;;;;;;5095181;28;20504;-80
2021/10/16 08:04:20;;;;;;;0.20;0.20;;;;;;;;;;5094902;28;20115;-79
2021/10/16 08:06:46;;;;;;;0.10;0.10;;;;;;;;;;5097399;28;20225;-80
2021/10/16 08:09:12;;;;;;;0.70;0.70;;;;;;;;;;5097482;28;20874;-80
2021/10/16 08:11:38;;;;;;;0.53;0.40;;;;;;;;;;5094108;28;20028;-79
2021/10/16 08:14:04;;;;;;;0.20;0.20;;;;;;;;;;5091359;28;21029;-78
2021/10/16 08:16:30;;;;;;;0.10;0.10;;;;;;;;;;5094927;28;20032;-81
2021/10/16 08:18:57;;;;;;;2.60;0.90;;;;;;;;;;5089653;28;20793;-80
2021/10/16 08:21:23;;;;;;;0.10;0.10;;;;;;;;;;5092433;28;20404;-81
2021/10/16 08:23:49;;;;;;;0.23;0.23;;;;;;;;;;5093469;28;20042;-80
2021/10/16 08:26:16;;;;;;;0.30;0.30;;;;;;;;;;5091482;28;20027;-80
2021/10/16 08:28:42;;;;;;;0.30;0.30;;;;;;;;;;5091582;28;20036;-81
2021/10/16 08:31:08;;;;;;;0.10;0.10;;;;;;;;;;5092665;28;20028;-81
2021/10/16 08:33:36;;;;;;;0.63;0.63;;;;;;;;;;5093271;28;20515;-81
2021/10/16 08:36:03;;;;;;;0.30;0.30;;;;;;;;;;5090487;28;20072;-80
2021/10/16 08:38:29;;;;;;;0.28;0.28;;;;;;;;;;5093723;28;20110;-81
2021/10/16 08:40:55;;;;;;;0.37;0.37;;;;;;;;;;5092647;28;20026;-80
2021/10/16 08:43:21;;;;;;;0.57;0.57;;;;;;;;;;5097471;28;20832;-80
2021/10/16 08:45:47;;;;;;;0.10;0.10;;;;;;;;;;5098919;28;20044;-81
2021/10/16 08:48:15;;;;;;;0.10;0.10;;;;;;;;;;5095640;28;20118;-80
2021/10/16 08:50:42;;;;;;;0.20;0.20;;;;;;;;;;5095104;28;20369;-81
2021/10/16 08:53:08;;;;;;;6.68;1.65;;;;;;;;;;5093296;28;20377;-80
2021/10/16 08:55:34;;;;;;;0.10;0.10;;;;;;;;;;5093236;28;20028;-81
2021/10/16 11:16:26;;;;;;;1.08;1.02;;;;;;;;;;5075436;27;20428;-80
2021/10/16 11:18:57;;;;;;;2.03;0.98;;;;;;;;;;5058847;28;20175;-81
2021/10/16 11:21:23;;;;;;;0.15;0.15;;;;;;;;;;5058556;28;20065;-81
2021/10/16 11:23:49;;;;;;;0.80;0.70;;;;;;;;;;5057994;28;20348;-80
2021/10/16 11:26:16;;;;;;;0.47;0.47;;;;;;;;;;5057976;28;20040;-81
2021/10/16 11:28:45;;;;;;;0.60;0.60;;;;;;;;;;5059986;28;20382;-80
2021/10/16 11:31:11;;;;;;;0.57;0.57;;;;;;;;;;5067531;28;20031;-82
2021/10/16 11:33:40;;;;;;;0.98;0.22;;;;;;;;;;5038062;28;20106;-81
2021/10/16 11:36:07;;;;;;;0.25;0.25;;;;;;;;;;5058009;28;20498;-81
2021/10/16 11:38:33;;;;;;;;;;;;;;;;;;5059979;28;20029;-81
2021/10/16 11:40:59;;;;;;;0.22;0.22;;;;;;;;;;5058090;28;20022;-81
2021/10/16 11:43:27;;;;;;;0.50;0.50;;;;;;;;;;5058357;28;20056;-81
2021/10/16 11:45:54;;;;;;;0.75;0.75;;;;;;;;;;5053927;28;20028;-81
2021/10/16 11:48:21;;;;;;;4.57;1.58;;;;;;;;;;5059162;28;20086;-81
2021/10/16 11:50:47;;;;;;;;;;;;;;;;;;5056574;28;20121;-81
2021/10/16 11:53:21;;;;;;;0.40;0.40;;;;;;;;;;5055759;28;20741;-83
2021/10/16 11:55:57;;;;;;;3.40;0.80;;;;;;;;;;5036446;28;20045;-81
2021/10/16 11:58:25;;;;;;;0.55;0.40;;;;;;;;;;5057451;28;20093;-81
2021/10/16 12:00:52;;;;;;;0.17;0.17;;;;;;;;;;5057544;28;20127;-80
2021/10/16 12:03:20;;;;;;;0.30;0.30;;;;;;;;;;5056061;28;20024;-80
2021/10/16 12:05:49;;;;;;;0.63;0.55;;;;;;;;;;5056379;28;20033;-81
2021/10/16 12:08:25;;;;;;;0.20;0.20;;;;;;;;;;5056546;28;20025;-80
2021/10/16 12:10:53;;;;;;;0.13;0.13;;;;;;;;;;5057117;28;20079;-81
2021/10/16 12:13:38;;;;;;;0.43;0.43;;;;;;;;;;5056984;28;20525;-80
2021/10/16 12:16:17;;;;;;;1.65;0.98;;;;;;;;;;5047689;28;20054;-79
2021/10/16 12:18:50;;;;;;;0.32;0.32;;;;;;;;;;5043929;28;20078;-80
2021/10/16 12:21:36;;;;;;;0.30;0.30;;;;;;;;;;5041791;28;20028;-80
2021/10/16 12:24:09;;;;;;;0.45;0.45;;;;;;;;;;5043336;28;20043;-80
2021/10/16 12:26:37;;;;;;;0.65;0.65;;;;;;;;;;5041933;28;20048;-79
2021/10/16 12:29:07;;;;;;;0.98;0.93;;;;;;;;;;5044023;28;20032;-81
2021/10/16 12:31:46;;;;;;;0.32;0.32;;;;;;;;;;5044424;28;20036;-80
2021/10/16 12:34:20;;;;;;;0.70;0.60;;;;;;;;;;5042612;28;20510;-79
2021/10/16 12:36:56;;;;;;;0.28;0.22;;;;;;;;;;5043199;28;20033;-81
2021/10/16 12:39:26;;;;;;;10.50;1.27;;;;;;;;;;5044436;28;20514;-80
2021/10/16 12:41:52;;;;;;;1.10;0.98;;;;;;;;;;5041521;28;20033;-80
2021/10/16 12:44:18;;;;;;;5.80;1.67;;;;;;;;;;5040775;28;20029;-80
2021/10/16 12:46:45;;;;;;;0.55;0.55;;;;;;;;;;5043384;28;20403;-80
2021/10/16 12:49:31;;;;;;;0.45;0.45;;;;;;;;;;5044196;28;20029;-81
2021/10/16 12:52:00;;;;;;;0.53;0.53;;;;;;;;;;5043155;28;20056;-80
2021/10/16 12:54:30;;;;;;;0.47;0.47;;;;;;;;;;5026515;28;20298;-80
2021/10/16 12:57:06;;;;;;;5.22;1.20;;;;;;;;;;5041622;28;20125;-80
2021/10/16 12:59:32;;;;;;;0.45;0.45;;;;;;;;;;5042814;28;20536;-80
2021/10/16 13:01:58;;;;;;;7.25;1.08;;;;;;;;;;5044182;28;20028;-81
2021/10/16 13:04:25;;;;;;;1.10;0.77;;;;;;;;;;5026881;28;20044;-81
2021/10/16 13:06:51;;;;;;;0.13;0.13;;;;;;;;;;5041947;28;20276;-81
2021/10/16 13:09:17;;;;;;;0.90;0.90;;;;;;;;;;5038860;28;20597;-80
2021/10/16 13:11:43;;;;;;;1.33;0.90;;;;;;;;;;5043546;28;20107;-81
2021/10/16 13:14:09;;;;;;;0.20;0.20;;;;;;;;;;5042903;28;20035;-80
2021/10/16 13:16:35;;;;;;;0.20;0.20;;;;;;;;;;5044095;28;20276;-81
2021/10/16 13:19:01;;;;;;;1.75;0.35;;;;;;;;;;5043907;28;20048;-81
2021/10/16 13:21:27;;;;;;;0.60;0.60;;;;;;;;;;5042328;28;20495;-81
2021/10/16 13:23:53;;;;;;;0.73;0.50;;;;;;;;;;5041244;28;20025;-79
2021/10/16 13:26:19;;;;;;;0.53;0.53;;;;;;;;;;5041681;28;20029;-80
2021/10/16 13:28:45;;;;;;;0.50;0.37;;;;;;;;;;5042425;28;20805;-81
2021/10/16 13:31:11;;;;;;;3.77;0.37;;;;;;;;;;5041557;28;20032;-80
2021/10/16 13:33:37;;;;;;;0.20;0.20;;;;;;;;;;5040780;28;20028;-80
2021/10/16 13:36:03;;;;;;;0.37;0.37;;;;;;;;;;5042287;28;20383;-81
2021/10/16 13:38:29;;;;;;;0.52;0.38;;;;;;;;;;5041089;28;20324;-80
2021/10/16 13:40:55;;;;;;;0.25;0.25;;;;;;;;;;5043514;28;20033;-80
2021/10/16 13:43:21;;;;;;;0.30;0.30;;;;;;;;;;5042854;28;20503;-80
2021/10/16 13:45:47;;;;;;;0.15;0.15;;;;;;;;;;5041234;28;20085;-80
2021/10/16 13:48:14;;;;;;;0.97;0.83;;;;;;;;;;5041515;28;20123;-80
2021/10/16 13:50:40;;;;;;;0.15;0.15;;;;;;;;;;5043353;28;20351;-81
2021/10/16 13:53:06;;;;;;;0.13;0.13;;;;;;;;;;5044506;28;20025;-81
2021/10/16 13:55:33;;;;;;;11.00;1.05;;;;;;;;;;5044594;28;20047;-80
2021/10/16 13:57:59;;;;;;;0.22;0.22;;;;;;;;;;5042934;28;20765;-80
2021/10/16 14:00:25;;;;;;;0.27;0.27;;;;;;;;;;5040223;28;20082;-81
2021/10/16 14:02:51;;;;;;;0.27;0.27;;;;;;;;;;5023227;28;20075;-81
2021/10/16 14:05:17;;;;;;;0.10;0.10;;;;;;;;;;5043023;28;20025;-81
2021/10/16 14:07:43;;;;;;;3.22;1.85;;;;;;;;;;5043834;28;20502;-79
2021/10/16 14:10:09;;;;;;;0.20;0.20;;;;;;;;;;5042228;28;20029;-81
2021/10/16 14:12:35;;;;;;;0.27;0.27;;;;;;;;;;5041640;28;20024;-81
2021/10/16 14:15:02;;;;;;;0.22;0.22;;;;;;;;;;5043756;28;20056;-81
2021/10/16 14:17:28;;;;;;;0.17;0.17;;;;;;;;;;5040654;28;20525;-80
2021/10/16 14:19:54;;;;;;;0.73;0.73;;;;;;;;;;5044721;28;20040;-80
2021/10/16 14:22:20;;;;;;;1.35;0.90;;;;;;;;;;5042052;28;20037;-81
2021/10/16 14:24:46;;;;;;;0.27;0.27;;;;;;;;;;5042871;28;20025;-82
2021/10/16 14:27:12;;;;;;;0.10;0.10;;;;;;;;;;5042444;28;20287;-82
2021/10/16 15:19:05;;;;;;;0.20;0.20;;;;;;;;;;5089737;27;21138;-80
2021/10/16 15:21:31;;;;;;;0.63;0.30;;;;;;;;;;5086680;28;20069;-82
2021/10/16 15:23:57;;;;;;;4.05;1.85;;;;;;;;;;5090343;28;20036;-82
2021/10/16 15:26:24;;;;;;;0.20;0.20;;;;;;;;;;5087001;28;20024;-82
2021/10/16 16:26:13;;;;;;;0.63;0.32;;;;;;;;;;5062700;28;20525;-79
2021/10/16 16:28:40;;;;;;;0.38;0.38;;;;;;;;;;5055341;28;20025;-79
2021/10/16 16:31:06;;;;;;;;;;;;;;;;;;5059138;28;20055;-79
2021/10/16 16:33:32;;;;;;;2.95;0.50;;;;;;;;;;5061403;28;20302;-80
2021/10/16 16:35:58;;;;;;;0.47;0.47;;;;;;;;;;5061491;28;20083;-79
2021/10/16 16:38:24;;;;;;;0.27;0.27;;;;;;;;;;5060479;28;20568;-80
2021/10/16 16:40:50;;;;;;;0.45;0.45;;;;;;;;;;5057016;28;20303;-83
2021/10/16 16:43:17;;;;;;;0.40;0.40;;;;;;;;;;5059823;28;20028;-84
2021/10/16 16:45:43;;;;;;;0.30;0.30;;;;;;;;;;5061307;28;20131;-83
2021/10/16 16:48:09;;;;;;;0.10;0.10;;;;;;;;;;5060001;28;20684;-84
2021/10/16 16:50:35;;;;;;;13.60;1.77;;;;;;;;;;5050395;28;20030;-80
2021/10/16 16:53:01;;;;;;;0.40;0.40;;;;;;;;;;5051805;28;20244;-83
2021/10/16 16:55:27;;;;;;;0.23;0.23;;;;;;;;;;5054288;28;20279;-83
2021/10/16 16:57:53;;;;;;;0.10;0.10;;;;;;;;;;5053533;28;20287;-81
2021/10/16 17:00:19;;;;;;;0.50;0.50;;;;;;;;;;5052883;28;20311;-81
2021/10/16 17:02:46;;;;;;;0.20;0.20;;;;;;;;;;5057475;28;20056;-84
2021/10/16 17:05:12;;;;;;;0.15;0.15;;;;;;;;;;5054747;28;20524;-80
2021/10/16 17:07:38;;;;;;;2.43;1.13;;;;;;;;;;5055916;28;20032;-82
2021/10/16 17:10:05;;;;;;;0.63;0.63;;;;;;;;;;5059659;28;20629;-83
2021/10/16 17:12:31;;;;;;;0.32;0.25;;;;;;;;;;5055690;28;20124;-85
2021/10/16 17:14:57;;;;;;;0.50;0.50;;;;;;;;;;5051565;28;20967;-84
2021/10/16 17:17:24;;;;;;;0.83;0.63;;;;;;;;;;5060772;28;20025;-78
2021/10/16 17:19:50;;;;;;;0.17;0.17;;;;;;;;;;5058514;28;20055;-77
2021/10/16 17:22:17;;;;;;;0.38;0.38;;;;;;;;;;5058801;28;20029;-78
2021/10/16 17:24:43;;;;;;;0.75;0.75;;;;;;;;;;5058809;28;20661;-81
2021/10/16 17:27:09;;;;;;;0.40;0.40;;;;;;;;;;5057710;28;20017;-80
2021/10/16 17:29:35;;;;;;;0.40;0.40;;;;;;;;;;5052619;28;20497;-80
2021/10/16 17:32:01;;;;;;;0.20;0.20;;;;;;;;;;5054204;28;20379;-82
2021/10/16 17:34:29;;;;;;;0.50;0.50;;;;;;;;;;5053903;28;20032;-82
2021/10/16 17:36:55;;;;;;;0.10;0.10;;;;;;;;;;5044054;28;20044;-85
2021/10/16 17:39:21;;;;;;;;;;;;;;;;;;5042645;28;20048;-80
2021/10/16 17:41:48;;;;;;;0.28;0.28;;;;;;;;;;5034898;28;19909;-84
2021/10/16 17:44:14;;;;;;;0.73;0.57;;;;;;;;;;5037466;28;20071;-84
2021/10/16 17:46:40;;;;;;;0.52;0.47;;;;;;;;;;5038848;28;20055;-83
2021/10/16 17:49:07;;;;;;;0.30;0.30;;;;;;;;;;5044033;28;20047;-82
2021/10/16 17:51:33;;;;;;;0.20;0.20;;;;;;;;;;5045259;28;20067;-83
2021/10/16 17:54:00;;;;;;;0.10;0.10;;;;;;;;;;5041320;28;20617;-82
2021/10/16 17:56:26;;;;;;;0.32;0.32;;;;;;;;;;5041417;28;20039;-82
2021/10/16 17:58:52;;;;;;;0.75;0.38;;;;;;;;;;5040614;28;20084;-83
2021/10/16 18:01:18;;;;;;;1.50;0.63;;;;;;;;;;5040178;28;20037;-83
2021/10/16 18:03:44;;;;;;;0.30;0.30;;;;;;;;;;5038314;28;20411;-81
2021/10/16 18:06:11;;;;;;;0.53;0.47;;;;;;;;;;5037984;28;20516;-80
2021/10/16 18:08:38;;;;;;;0.52;0.52;;;;;;;;;;5035556;28;20368;-81
2021/10/16 18:11:05;;;;;;;0.70;0.70;;;;;;;;;;5033332;28;20079;-82
2021/10/16 18:13:31;;;;;;;0.25;0.25;;;;;;;;;;5040105;28;20079;-82
2021/10/16 18:15:57;;;;;;;0.27;0.27;;;;;;;;;;5037166;28;20033;-80
2021/10/16 18:18:23;;;;;;;0.73;0.50;;;;;;;;;;5031989;28;20674;-81
2021/10/16 18:20:49;;;;;;;0.32;0.32;;;;;;;;;;5034894;28;20033;-82
2021/10/16 18:23:15;;;;;;;0.40;0.40;;;;;;;;;;5044638;28;20395;-81
2021/10/16 18:25:41;;;;;;;0.35;0.35;;;;;;;;;;5035446;28;20048;-80
2021/10/16 18:28:08;;;;;;;0.45;0.45;;;;;;;;;;5034990;28;20277;-80
2021/10/16 18:30:34;;;;;;;0.85;0.85;;;;;;;;;;5029979;28;20032;-81
2021/10/16 18:33:00;;;;;;;0.65;0.65;;;;;;;;;;5043802;28;20464;-81
2021/10/16 18:35:27;;;;;;;0.40;0.40;;;;;;;;;;5038014;28;20492;-81
2021/10/16 18:37:53;;;;;;;0.85;0.85;;;;;;;;;;5037967;28;20128;-79
2021/10/16 18:40:19;;;;;;;0.80;0.32;;;;;;;;;;5041474;28;20108;-77
2021/10/16 18:42:46;;;;;;;0.30;0.30;;;;;;;;;;5046405;28;20064;-77
2021/10/16 18:45:13;;;;;;;;;;;;;;;;;;5039773;28;20045;-76
2021/10/16 18:47:39;;;;;;;0.10;0.10;;;;;;;;;;5034554;28;19909;-76